createdAt,value
2023-04-16T00:01:24.242Z,3.37
2023-04-16T00:03:50.777Z,4.80
2023-04-16T00:06:17.361Z,6.75
2023-04-16T00:08:43.863Z,5.53
2023-04-16T00:11:10.405Z,5.68
2023-04-16T00:13:37.147Z,2.07
2023-04-16T00:16:03.695Z,7.57
2023-04-16T00:18:30.193Z,7.90
2023-04-16T00:20:56.681Z,5.40
2023-04-16T00:23:25.155Z,3.53
2023-04-16T00:25:51.744Z,8.63
2023-04-16T00:28:18.170Z,3.90
2023-04-16T00:30:44.627Z,5.45
2023-04-16T00:33:11.047Z,3.95
2023-04-16T00:35:37.497Z,5.22
2023-04-16T00:38:03.933Z,7.63
2023-04-16T00:40:30.617Z,4.65
2023-04-16T00:42:56.974Z,7.63
2023-04-16T00:45:23.393Z,3.03
2023-04-16T00:47:50.005Z,4.00
2023-04-16T00:50:17.620Z,8.00
2023-04-16T00:52:46.837Z,6.88
2023-04-16T00:55:13.468Z,9.00
2023-04-16T00:57:39.815Z,3.40
2023-04-16T01:00:06.976Z,4.85
2023-04-16T01:02:34.565Z,7.37
2023-04-16T01:05:02.115Z,7.40
2023-04-16T01:07:28.741Z,10.00
2023-04-16T01:09:55.377Z,9.10
2023-04-16T01:12:21.940Z,7.57
2023-04-16T01:14:48.750Z,8.97
2023-04-16T01:17:15.156Z,9.68
2023-04-16T01:19:43.404Z,7.53
2023-04-16T01:22:09.762Z,8.65
2023-04-16T01:24:36.522Z,7.72
2023-04-16T01:27:03.018Z,7.10
2023-04-16T01:29:29.418Z,10.18
2023-04-16T01:31:55.783Z,6.38
2023-04-16T01:34:22.167Z,8.55
2023-04-16T01:36:48.614Z,5.78
2023-04-16T01:39:16.336Z,4.73
2023-04-16T01:41:43.161Z,6.85
2023-04-16T01:44:09.633Z,7.97
2023-04-16T01:46:37.764Z,5.80
2023-04-16T01:49:05.537Z,6.68
2023-04-16T01:51:32.211Z,8.97
2023-04-16T01:53:58.893Z,9.27
2023-04-16T01:56:25.463Z,7.38
2023-04-16T01:58:53.158Z,5.70
2023-04-16T02:01:19.969Z,8.50
2023-04-16T02:03:47.101Z,11.63
2023-04-16T02:06:13.710Z,8.65
2023-04-16T02:08:40.830Z,9.52
2023-04-16T02:11:07.573Z,8.38
2023-04-16T02:13:33.944Z,12.02
2023-04-16T02:16:00.484Z,9.50
2023-04-16T02:18:27.084Z,12.88
2023-04-16T02:20:53.495Z,9.27
2023-04-16T02:23:19.928Z,13.35
2023-04-16T02:25:47.528Z,10.68
2023-04-16T02:28:16.026Z,13.93
2023-04-16T02:30:43.463Z,19.70
2023-04-16T02:33:11.667Z,11.60
2023-04-16T02:35:39.276Z,13.98
2023-04-16T02:38:06.010Z,10.25
2023-04-16T02:40:32.404Z,11.37
2023-04-16T02:42:58.935Z,9.65
2023-04-16T02:45:25.516Z,11.43
2023-04-16T02:47:52.125Z,13.55
2023-04-16T02:50:18.734Z,12.77
2023-04-16T02:52:45.330Z,11.50
2023-04-16T02:55:11.918Z,17.52
2023-04-16T02:57:38.359Z,17.23
2023-04-16T03:00:05.198Z,13.63
2023-04-16T03:02:31.839Z,9.98
2023-04-16T03:04:58.271Z,12.47
2023-04-16T03:07:24.730Z,11.18
2023-04-16T03:09:51.170Z,10.30
2023-04-16T03:12:17.504Z,14.55
2023-04-16T03:14:43.817Z,13.52
2023-04-16T03:17:10.189Z,11.63
2023-04-16T03:19:36.555Z,11.50
2023-04-16T03:22:02.943Z,11.73
2023-04-16T03:24:29.531Z,8.85
2023-04-16T03:26:57.744Z,11.00
2023-04-16T03:29:24.203Z,15.43
2023-04-16T03:31:50.546Z,17.90
2023-04-16T03:34:16.927Z,12.02
2023-04-16T03:36:43.337Z,16.42
2023-04-16T03:39:09.768Z,8.45
2023-04-16T03:41:36.498Z,11.57
2023-04-16T03:44:02.887Z,12.38
2023-04-16T03:46:29.236Z,12.57
2023-04-16T03:48:55.609Z,12.77
2023-04-16T03:51:21.959Z,12.48
2023-04-16T03:53:48.292Z,10.33
2023-04-16T03:56:14.635Z,14.68
2023-04-16T03:58:40.953Z,11.13
2023-04-16T04:01:07.346Z,17.80
2023-04-16T04:03:33.789Z,12.18
2023-04-16T04:06:00.452Z,13.23
2023-04-16T04:08:26.856Z,9.45
2023-04-16T04:10:53.241Z,9.40
2023-04-16T04:13:19.646Z,16.02
2023-04-16T04:15:46.005Z,12.00
2023-04-16T04:18:12.364Z,14.17
2023-04-16T04:20:41.468Z,11.13
2023-04-16T04:23:07.868Z,17.50
2023-04-16T04:25:34.249Z,12.02
2023-04-16T04:28:00.598Z,14.52
2023-04-16T04:30:26.978Z,11.83
2023-04-16T04:32:53.447Z,12.85
2023-04-16T04:35:19.901Z,14.13
2023-04-16T04:37:46.474Z,12.15
2023-04-16T04:40:13.093Z,13.00
2023-04-16T04:42:39.461Z,11.03
2023-04-16T04:45:06.588Z,16.35
2023-04-16T04:47:32.930Z,12.57
2023-04-16T04:49:59.280Z,15.93
2023-04-16T04:52:25.833Z,15.70
2023-04-16T04:54:52.990Z,13.03
2023-04-16T04:57:19.363Z,12.65
2023-04-16T04:59:46.050Z,11.85
2023-04-16T05:02:12.501Z,17.88
2023-04-16T05:04:39.017Z,14.48
2023-04-16T05:07:06.495Z,11.87
2023-04-16T05:09:32.925Z,11.77
2023-04-16T05:11:59.364Z,17.42
2023-04-16T05:14:25.781Z,11.98
2023-04-16T05:16:52.171Z,19.10
2023-04-16T05:19:18.588Z,10.97
2023-04-16T05:21:45.194Z,13.95
2023-04-16T05:24:13.639Z,15.05
2023-04-16T05:26:41.163Z,18.33
2023-04-16T05:29:07.772Z,9.85
2023-04-16T05:31:34.228Z,15.27
2023-04-16T05:34:00.596Z,17.83
2023-04-16T05:36:26.966Z,15.02
2023-04-16T05:38:53.305Z,12.77
2023-04-16T05:41:19.639Z,16.08
2023-04-16T05:43:45.970Z,15.00
2023-04-16T05:46:12.390Z,12.85
2023-04-16T05:48:38.721Z,14.85
2023-04-16T05:51:05.284Z,13.05
2023-04-16T05:53:31.696Z,14.35
2023-04-16T05:55:58.048Z,14.10
2023-04-16T05:58:24.437Z,12.48
2023-04-16T06:00:51.275Z,16.33
2023-04-16T06:03:17.828Z,12.20
2023-04-16T06:05:44.622Z,14.70
2023-04-16T06:08:11.063Z,15.33
2023-04-16T06:10:37.732Z,12.05
2023-04-16T06:13:04.100Z,9.35
2023-04-16T06:15:30.486Z,15.10
2023-04-16T06:18:00.192Z,17.33
2023-04-16T06:20:27.264Z,16.33
2023-04-16T06:22:53.679Z,17.10
2023-04-16T06:25:20.022Z,11.38
2023-04-16T06:27:46.450Z,14.10
2023-04-16T06:30:14.110Z,18.55
2023-04-16T06:32:40.840Z,13.40
2023-04-16T06:35:07.722Z,12.57
2023-04-16T06:37:34.056Z,17.73
2023-04-16T06:40:00.535Z,16.55
2023-04-16T06:42:27.716Z,12.50
2023-04-16T06:44:54.075Z,14.90
2023-04-16T06:47:21.048Z,13.15
2023-04-16T06:49:47.428Z,20.98
2023-04-16T06:52:13.781Z,12.45
2023-04-16T06:54:40.149Z,12.75
2023-04-16T06:57:06.460Z,10.90
2023-04-16T06:59:32.842Z,20.80
2023-04-16T07:01:59.329Z,12.20
2023-04-16T07:04:26.003Z,20.17
2023-04-16T07:06:52.588Z,17.13
2023-04-16T07:09:19.122Z,19.07
2023-04-16T07:11:45.663Z,19.33
2023-04-16T07:14:12.054Z,17.83
2023-04-16T07:16:38.447Z,17.10
2023-04-16T07:19:04.846Z,18.75
2023-04-16T07:21:31.800Z,19.50
2023-04-16T07:23:58.115Z,18.63
2023-04-16T07:26:24.468Z,19.40
2023-04-16T07:28:50.785Z,15.88
2023-04-16T07:31:17.414Z,15.85
2023-04-16T07:33:43.949Z,17.43
2023-04-16T07:36:10.973Z,17.65
2023-04-16T07:38:37.349Z,14.07
2023-04-16T07:41:03.910Z,16.63
2023-04-16T07:43:30.422Z,15.80
2023-04-16T07:45:56.958Z,13.07
2023-04-16T07:48:23.475Z,16.25
2023-04-16T07:50:50.237Z,12.63
2023-04-16T07:53:16.673Z,13.10
2023-04-16T07:55:43.068Z,11.95
2023-04-16T07:58:09.542Z,17.73
2023-04-16T08:00:36.014Z,16.92
2023-04-16T08:03:02.596Z,13.13
2023-04-16T08:05:29.292Z,13.85
2023-04-16T08:07:56.037Z,12.93
2023-04-16T08:10:22.477Z,12.10
2023-04-16T08:12:48.955Z,10.82
2023-04-16T08:15:15.379Z,8.20
2023-04-16T08:17:42.079Z,7.30
2023-04-16T08:20:09.514Z,8.77
2023-04-16T08:22:36.937Z,12.70
2023-04-16T08:25:04.003Z,7.85
2023-04-16T08:27:30.341Z,7.70
2023-04-16T08:29:56.832Z,10.77
2023-04-16T08:32:23.202Z,7.50
2023-04-16T08:34:49.710Z,9.40
2023-04-16T08:37:16.095Z,8.02
2023-04-16T08:39:42.504Z,8.27
2023-04-16T08:42:16.248Z,9.32
2023-04-16T08:44:49.410Z,10.38
2023-04-16T08:47:16.352Z,5.33
2023-04-16T08:49:44.972Z,6.80
2023-04-16T08:52:18.273Z,8.13
2023-04-16T08:55:14.330Z,5.20
2023-04-16T08:57:48.846Z,6.60
2023-04-16T09:00:18.048Z,6.40
2023-04-16T09:02:44.910Z,6.32
2023-04-16T09:05:16.975Z,5.65
2023-04-16T09:07:49.034Z,5.00
2023-04-16T09:10:16.449Z,5.78
2023-04-16T09:12:43.312Z,5.13
2023-04-16T09:15:11.294Z,5.60
2023-04-16T09:17:38.041Z,4.85
2023-04-16T09:20:09.177Z,4.70
2023-04-16T09:22:36.639Z,5.28
2023-04-16T09:25:03.576Z,5.90
2023-04-16T09:27:30.702Z,7.88
2023-04-16T09:29:57.116Z,5.60
2023-04-16T09:32:28.062Z,6.40
2023-04-16T09:34:58.516Z,5.07
2023-04-16T09:37:27.159Z,4.93
2023-04-16T09:39:58.827Z,5.78
2023-04-16T09:42:30.809Z,4.68
2023-04-16T09:44:59.873Z,8.05
2023-04-16T09:47:40.060Z,5.30
2023-04-16T09:50:08.545Z,4.60
2023-04-16T09:52:40.785Z,6.20
2023-04-16T09:55:07.435Z,6.70
2023-04-16T09:57:38.267Z,9.10
2023-04-16T10:00:08.805Z,7.68
2023-04-16T10:02:39.017Z,8.87
2023-04-16T10:05:06.393Z,9.45
2023-04-16T10:07:37.546Z,7.00
2023-04-16T10:10:04.659Z,7.90
2023-04-16T10:12:32.792Z,7.93
2023-04-16T10:14:59.424Z,7.40
2023-04-16T10:17:26.439Z,11.10
2023-04-16T10:19:54.671Z,13.77
2023-04-16T10:22:21.353Z,9.18
2023-04-16T10:24:48.873Z,12.45
2023-04-16T10:27:16.584Z,9.70
2023-04-16T10:29:44.433Z,16.15
2023-04-16T10:32:11.681Z,14.80
2023-04-16T10:34:38.113Z,12.35
2023-04-16T10:37:04.606Z,13.93
2023-04-16T10:39:31.029Z,11.67
2023-04-16T10:42:08.687Z,11.43
2023-04-16T10:44:35.396Z,12.20
2023-04-16T10:47:01.860Z,14.38
2023-04-16T10:49:28.264Z,14.05
2023-04-16T10:52:07.492Z,14.07
2023-04-16T10:54:36.098Z,14.27
2023-04-16T10:57:07.078Z,13.68
2023-04-16T10:59:36.018Z,12.77
2023-04-16T11:02:08.570Z,13.77
2023-04-16T11:04:37.500Z,14.67
2023-04-16T11:07:05.615Z,14.63
2023-04-16T11:09:45.901Z,10.88
2023-04-16T11:12:14.763Z,12.52
2023-04-16T11:14:42.000Z,16.70
2023-04-16T11:17:09.436Z,11.50
2023-04-16T11:19:36.971Z,12.43
2023-04-16T11:22:03.969Z,95.30
2023-04-16T11:24:31.746Z,7.22
2023-04-16T11:26:58.200Z,10.93
2023-04-16T11:29:24.789Z,8.57
2023-04-16T11:31:52.046Z,8.07
2023-04-16T11:34:19.129Z,11.75
2023-04-16T11:36:46.661Z,9.18
2023-04-16T11:39:13.122Z,11.88
2023-04-16T11:41:52.273Z,10.77
2023-04-16T11:44:22.516Z,11.05
2023-04-16T11:46:49.830Z,12.90
2023-04-16T11:49:17.586Z,7.75
2023-04-16T11:51:45.616Z,11.02
2023-04-16T11:54:20.294Z,13.30
2023-04-16T11:56:48.315Z,13.93
2023-04-16T11:59:18.983Z,12.60
2023-04-16T12:01:48.002Z,16.17
2023-04-16T12:04:16.494Z,19.00
2023-04-16T12:07:05.620Z,17.93
2023-04-16T12:09:32.260Z,15.18
2023-04-16T12:11:58.582Z,19.35
2023-04-16T12:14:24.887Z,17.30
2023-04-16T12:16:51.452Z,13.35
2023-04-16T12:19:18.750Z,9.50
2023-04-16T12:21:47.161Z,13.30
2023-04-16T12:24:21.076Z,16.10
2023-04-16T12:26:52.050Z,12.23
2023-04-16T12:29:27.436Z,13.23
2023-04-16T12:31:54.424Z,11.63
2023-04-16T12:34:21.799Z,12.77
2023-04-16T12:37:09.577Z,11.68
2023-04-16T12:39:36.083Z,7.13
2023-04-16T12:42:03.711Z,10.18
2023-04-16T12:44:30.149Z,14.00
2023-04-16T12:46:56.947Z,12.13
2023-04-16T12:49:23.264Z,9.63
2023-04-16T12:51:49.891Z,13.60
2023-04-16T12:54:16.496Z,10.57
2023-04-16T12:56:42.828Z,11.17
2023-04-16T13:01:37.090Z,10.50
2023-04-16T13:04:04.077Z,8.50
2023-04-16T13:06:33.631Z,17.33
2023-04-16T13:09:00.627Z,16.53
2023-04-16T13:11:27.378Z,14.00
2023-04-16T13:13:53.835Z,13.60
2023-04-16T13:16:20.258Z,15.15
2023-04-16T13:18:46.832Z,21.50
2023-04-16T13:21:13.413Z,20.67
2023-04-16T13:23:39.860Z,14.25
2023-04-16T13:26:06.245Z,21.63
2023-04-16T13:28:32.609Z,12.90
2023-04-16T13:30:59.622Z,19.75
2023-04-16T13:33:26.584Z,19.97
2023-04-16T13:35:53.044Z,19.70
2023-04-16T13:38:19.397Z,15.85
2023-04-16T13:40:45.916Z,18.05
2023-04-16T13:43:13.721Z,16.00
2023-04-16T13:45:40.253Z,15.80
2023-04-16T13:48:06.683Z,8.77
2023-04-16T13:50:33.239Z,14.90
2023-04-16T13:52:59.629Z,13.95
2023-04-16T13:55:26.117Z,10.27
2023-04-16T13:57:53.206Z,10.43
2023-04-16T14:00:20.314Z,9.25
2023-04-16T14:02:48.589Z,12.05
2023-04-16T14:05:15.512Z,13.52
2023-04-16T14:07:42.040Z,12.30
2023-04-16T14:10:09.000Z,9.40
2023-04-16T14:12:36.556Z,8.82
2023-04-16T14:15:04.436Z,9.70
2023-04-16T14:17:30.986Z,14.00
2023-04-16T14:19:57.407Z,13.57
2023-04-16T14:22:23.905Z,11.97
2023-04-16T14:24:50.325Z,12.05
2023-04-16T14:27:17.120Z,11.70
2023-04-16T14:29:44.304Z,12.07
2023-04-16T14:32:10.835Z,16.15
2023-04-16T14:34:37.302Z,8.40
2023-04-16T14:37:04.207Z,16.38
2023-04-16T14:39:30.980Z,11.63
2023-04-16T14:41:57.404Z,15.57
2023-04-16T14:44:23.901Z,12.70
2023-04-16T14:46:50.445Z,10.43
2023-04-16T14:49:17.164Z,12.23
2023-04-16T14:51:45.585Z,8.32
2023-04-16T14:54:11.987Z,13.88
2023-04-16T14:56:38.325Z,10.57
2023-04-16T14:59:04.725Z,13.77
2023-04-16T15:01:32.078Z,11.60
2023-04-16T15:04:01.906Z,17.83
2023-04-16T15:06:29.572Z,10.13
2023-04-16T15:08:55.975Z,9.77
2023-04-16T15:11:22.396Z,9.53
2023-04-16T15:13:48.739Z,11.23
2023-04-16T15:16:15.327Z,11.15
2023-04-16T15:18:41.811Z,8.38
2023-04-16T15:21:09.111Z,10.70
2023-04-16T15:23:37.154Z,11.73
2023-04-16T15:26:03.694Z,11.65
2023-04-16T15:28:30.126Z,14.98
2023-04-16T15:30:57.240Z,9.63
2023-04-16T15:33:23.956Z,9.73
2023-04-16T15:35:51.623Z,8.83
2023-04-16T15:38:21.203Z,10.45
2023-04-16T15:40:48.061Z,12.60
2023-04-16T15:43:15.608Z,11.90
2023-04-16T15:45:41.925Z,15.05
2023-04-16T15:48:08.804Z,15.80
2023-04-16T15:50:35.750Z,9.55
2023-04-16T15:53:02.195Z,10.77
2023-04-16T15:55:29.033Z,11.70
2023-04-16T15:57:55.550Z,11.90
2023-04-16T16:00:22.402Z,12.80
2023-04-16T16:02:48.875Z,13.75
2023-04-16T16:05:16.424Z,14.77
2023-04-16T16:07:43.794Z,10.75
2023-04-16T16:10:11.532Z,11.38
2023-04-16T16:12:37.893Z,10.70
2023-04-16T16:15:05.028Z,17.92
2023-04-16T16:17:31.488Z,11.00
2023-04-16T16:20:01.019Z,13.93
2023-04-16T16:22:27.574Z,13.18
2023-04-16T16:24:56.231Z,15.07
2023-04-16T16:27:22.879Z,13.32
2023-04-16T16:29:49.327Z,15.40
2023-04-16T16:32:16.591Z,13.73
2023-04-16T16:34:43.190Z,19.10
2023-04-16T16:37:09.633Z,15.30
2023-04-16T16:39:38.320Z,13.20
2023-04-16T16:42:05.203Z,13.77
2023-04-16T16:44:31.658Z,12.80
2023-04-16T16:46:58.137Z,14.85
2023-04-16T16:49:24.547Z,14.00
2023-04-16T16:51:50.882Z,13.60
2023-04-16T16:54:17.238Z,13.70
2023-04-16T16:56:43.581Z,13.55
2023-04-16T16:59:10.618Z,12.93
2023-04-16T17:01:37.287Z,14.87
2023-04-16T17:04:04.095Z,16.08
2023-04-16T17:06:31.630Z,15.98
2023-04-16T17:08:58.036Z,15.23
2023-04-16T17:11:26.943Z,14.80
2023-04-16T17:13:53.675Z,13.70
2023-04-16T17:16:20.092Z,16.15
2023-04-16T17:18:46.591Z,17.23
2023-04-16T17:21:14.569Z,14.10
2023-04-16T17:23:42.800Z,13.65
2023-04-16T17:26:09.117Z,15.83
2023-04-16T17:28:35.454Z,19.40
2023-04-16T17:31:02.810Z,13.55
2023-04-16T17:33:29.237Z,15.93
2023-04-16T17:35:55.744Z,12.40
2023-04-16T17:38:22.177Z,11.53
2023-04-16T17:40:48.527Z,13.27
2023-04-16T17:43:14.964Z,13.85
2023-04-16T17:45:41.395Z,16.67
2023-04-16T17:48:07.795Z,10.38
2023-04-16T17:50:34.176Z,10.57
2023-04-16T17:53:03.615Z,16.52
2023-04-16T17:55:30.853Z,13.25
2023-04-16T17:57:57.245Z,13.77
2023-04-16T18:00:23.750Z,16.23
2023-04-16T18:02:52.321Z,14.10
2023-04-16T18:05:21.951Z,16.42
2023-04-16T18:07:48.367Z,12.65
2023-04-16T18:10:14.891Z,11.15
2023-04-16T18:12:41.297Z,13.60
2023-04-16T18:15:08.342Z,13.07
2023-04-16T18:17:34.782Z,14.93
2023-04-16T18:20:01.247Z,17.42
2023-04-16T18:22:28.518Z,18.02
2023-04-16T18:24:55.097Z,15.73
2023-04-16T18:27:21.582Z,18.97
2023-04-16T18:29:49.376Z,22.30
2023-04-16T18:32:16.122Z,25.30
2023-04-16T18:34:42.611Z,23.52
2023-04-16T18:37:08.949Z,17.67
2023-04-16T18:39:36.697Z,24.60
2023-04-16T18:42:03.850Z,17.50
2023-04-16T18:44:30.429Z,20.80
2023-04-16T18:46:56.946Z,20.77
2023-04-16T18:49:23.605Z,17.45
2023-04-16T18:51:49.983Z,17.93
2023-04-16T18:54:16.510Z,19.98
2023-04-16T18:56:42.908Z,18.17
2023-04-16T18:59:09.529Z,22.95
2023-04-16T19:01:36.269Z,27.95
2023-04-16T19:04:03.399Z,16.97
2023-04-16T19:06:29.996Z,22.73
2023-04-16T19:08:56.434Z,24.20
2023-04-16T19:11:22.876Z,19.48
2023-04-16T19:13:49.228Z,21.45
2023-04-16T19:16:15.750Z,16.33
2023-04-16T19:18:42.265Z,18.85
2023-04-16T19:21:10.682Z,18.17
2023-04-16T19:23:37.351Z,16.27
2023-04-16T19:26:03.787Z,17.95
2023-04-16T19:28:30.221Z,18.70
2023-04-16T19:30:56.616Z,18.98
2023-04-16T19:33:23.002Z,20.25
2023-04-16T19:35:49.397Z,17.05
2023-04-16T19:38:15.744Z,18.92
2023-04-16T19:40:46.548Z,24.10
2023-04-16T19:43:13.066Z,20.58
2023-04-16T19:45:43.821Z,22.25
2023-04-16T19:48:11.127Z,23.05
2023-04-16T19:50:41.456Z,24.63
2023-04-16T19:53:08.536Z,20.70
2023-04-16T19:55:34.984Z,21.48
2023-04-16T19:58:05.526Z,22.95
2023-04-16T20:00:33.079Z,15.90
2023-04-16T20:02:59.619Z,20.88
2023-04-16T20:05:27.028Z,19.20
2023-04-16T20:07:54.084Z,19.83
2023-04-16T20:10:20.875Z,22.17
2023-04-16T20:12:47.516Z,19.55
2023-04-16T20:15:13.913Z,17.25
2023-04-16T20:17:40.378Z,17.77
2023-04-16T20:20:09.913Z,23.33
2023-04-16T20:22:40.005Z,22.80
2023-04-16T20:25:07.484Z,22.50
2023-04-16T20:27:33.945Z,19.27
2023-04-16T20:30:01.256Z,19.03
2023-04-16T20:32:28.118Z,24.70
2023-04-16T20:34:55.577Z,18.85
2023-04-16T20:37:22.050Z,19.75
2023-04-16T20:39:49.986Z,24.50
2023-04-16T20:42:16.761Z,26.30
2023-04-16T20:44:50.046Z,23.45
2023-04-16T20:47:17.189Z,23.77
2023-04-16T20:49:46.722Z,23.70
2023-04-16T20:52:14.003Z,20.42
2023-04-16T20:54:40.859Z,25.50
2023-04-16T20:57:07.464Z,25.08
2023-04-16T20:59:34.018Z,25.70
2023-04-16T21:02:00.539Z,24.17
2023-04-16T21:04:27.202Z,19.35
2023-04-16T21:06:53.731Z,24.33
2023-04-16T21:09:20.777Z,21.85
2023-04-16T21:11:47.178Z,22.90
2023-04-16T21:14:13.752Z,23.58
2023-04-16T21:16:40.316Z,29.65
2023-04-16T21:19:08.646Z,30.53
2023-04-16T21:21:35.360Z,26.38
2023-04-16T21:24:01.815Z,26.02
2023-04-16T21:26:28.208Z,23.52
2023-04-16T21:28:55.204Z,19.05
2023-04-16T21:31:21.978Z,18.10
2023-04-16T21:33:48.486Z,22.50
2023-04-16T21:36:15.441Z,22.85
2023-04-16T21:38:41.834Z,22.73
2023-04-16T21:41:08.212Z,20.08
2023-04-16T21:43:34.634Z,21.97
2023-04-16T21:46:00.984Z,19.33
2023-04-16T21:48:28.484Z,25.30
2023-04-16T21:50:59.910Z,23.88
2023-04-16T21:53:28.063Z,20.77
2023-04-16T21:55:54.487Z,24.07
2023-04-16T21:58:20.951Z,19.88
2023-04-16T22:00:47.485Z,22.65
2023-04-16T22:03:14.800Z,21.70
2023-04-16T22:05:41.297Z,23.23
2023-04-16T22:08:23.585Z,18.17
2023-04-16T22:10:51.238Z,25.50
2023-04-16T22:13:17.723Z,21.45
2023-04-16T22:15:44.074Z,22.98
2023-04-16T22:18:10.405Z,21.67
2023-04-16T22:20:39.119Z,22.43
2023-04-16T22:23:06.488Z,31.33
2023-04-16T22:25:33.030Z,26.70
2023-04-16T22:28:01.234Z,24.35
2023-04-16T22:30:27.611Z,24.30
2023-04-16T22:32:54.071Z,22.03
2023-04-16T22:35:20.511Z,23.73
2023-04-16T22:37:46.885Z,24.25
2023-04-16T22:40:13.267Z,27.52
2023-04-16T22:42:39.659Z,24.80
2023-04-16T22:45:07.160Z,26.20
2023-04-16T22:47:33.633Z,27.00
2023-04-16T22:50:00.245Z,28.58
2023-04-16T22:52:27.389Z,26.27
2023-04-16T22:54:53.749Z,24.13
2023-04-16T22:57:24.683Z,23.67
2023-04-16T22:59:52.126Z,29.35
2023-04-16T23:02:19.363Z,26.13
2023-04-16T23:04:48.822Z,26.70
2023-04-16T23:07:15.706Z,28.98
2023-04-16T23:09:42.452Z,27.27
2023-04-16T23:12:08.928Z,30.33
2023-04-16T23:14:36.751Z,25.13
2023-04-16T23:17:03.182Z,25.38
2023-04-16T23:19:31.109Z,22.88
2023-04-16T23:21:57.706Z,22.33
2023-04-16T23:24:24.083Z,25.35
2023-04-16T23:26:52.385Z,34.88
2023-04-16T23:29:19.194Z,28.73
2023-04-16T23:31:45.712Z,27.60
2023-04-16T23:34:12.054Z,25.57
2023-04-16T23:36:39.178Z,31.58
2023-04-16T23:39:05.488Z,27.77
2023-04-16T23:41:31.946Z,33.33
2023-04-16T23:43:58.359Z,22.98
2023-04-16T23:46:24.789Z,26.23
2023-04-16T23:48:52.585Z,29.75
2023-04-16T23:51:18.988Z,26.58
2023-04-16T23:53:45.360Z,28.75
2023-04-16T23:56:11.825Z,30.23
2023-04-16T23:58:38.220Z,28.27
